Time,TemperatureF,DewpointF,PressureIn,WindDirection,WindDirectionDegrees,WindSpeedMPH,WindSpeedGustMPH,Humidity,HourlyPrecipIn,Conditions,Clouds,dailyrainin,SoftwareType,DateUTC
2013-02-08 00:00:00,24.8,14.0,30.50,ENE,63,0.0,0.0,63,0.00,,---,0.00,VWS V14.01,2013-02-08 05:00:00,
2013-02-08 00:01:00,24.8,14.0,30.50,ENE,63,0.0,0.0,63,0.00,,---,0.00,VWS V14.01,2013-02-08 05:01:00,
2013-02-08 00:06:00,25.0,14.6,30.50,ENE,63,0.0,0.0,64,0.00,,---,0.00,VWS V14.01,2013-02-08 05:06:00,
2013-02-08 00:11:00,25.0,14.6,30.49,ENE,63,0.0,0.0,64,0.00,,---,0.00,VWS V14.01,2013-02-08 05:11:00,
2013-02-08 00:16:00,25.0,14.6,30.49,ENE,63,0.0,0.0,64,0.00,,---,0.00,VWS V14.01,2013-02-08 05:16:00,
2013-02-08 00:21:00,25.1,14.6,30.49,ENE,63,0.0,0.0,64,0.00,,---,0.00,VWS V14.01,2013-02-08 05:21:00,
2013-02-08 00:26:00,25.1,14.6,30.49,ENE,63,0.0,0.0,64,0.00,,---,0.00,VWS V14.01,2013-02-08 05:26:00,
2013-02-08 00:31:00,25.3,14.8,30.49,ENE,63,0.0,0.0,64,0.00,,---,0.00,VWS V14.01,2013-02-08 05:31:00,
2013-02-08 00:36:00,25.3,14.8,30.49,ENE,63,0.0,0.0,64,0.00,,---,0.00,VWS V14.01,2013-02-08 05:36:00,
2013-02-08 00:41:00,25.3,15.2,30.49,ENE,63,0.0,0.0,65,0.00,,---,0.00,VWS V14.01,2013-02-08 05:41:00,
2013-02-08 00:46:00,25.3,15.2,30.49,ENE,63,0.0,0.0,65,0.00,,---,0.00,VWS V14.01,2013-02-08 05:46:00,
2013-02-08 00:51:00,25.3,15.2,30.49,ENE,63,0.0,0.0,65,0.00,,---,0.00,VWS V14.01,2013-02-08 05:51:00,
2013-02-08 00:56:00,25.3,15.2,30.48,ENE,63,0.0,0.0,65,0.00,,---,0.00,VWS V14.01,2013-02-08 05:56:00,
2013-02-08 01:01:00,25.3,15.2,30.47,ENE,63,0.0,0.0,65,0.00,,---,0.00,VWS V14.01,2013-02-08 06:01:00,
2013-02-08 01:06:00,25.3,15.2,30.47,ENE,63,0.0,1.0,65,0.00,,---,0.00,VWS V14.01,2013-02-08 06:06:00,
2013-02-08 01:11:00,25.4,15.6,30.47,ENE,63,0.0,1.0,66,0.00,,---,0.00,VWS V14.01,2013-02-08 06:11:00,
2013-02-08 01:16:00,25.6,15.8,30.47,ENE,63,0.0,0.0,66,0.00,,---,0.00,VWS V14.01,2013-02-08 06:16:00,
2013-02-08 01:21:00,25.4,15.3,30.47,ENE,63,0.0,0.0,65,0.00,,---,0.00,VWS V14.01,2013-02-08 06:21:00,
2013-02-08 01:26:00,25.4,15.3,30.47,ENE,63,0.0,0.0,65,0.00,,---,0.00,VWS V14.01,2013-02-08 06:26:00,
2013-02-08 01:31:00,25.4,15.6,30.47,ENE,63,0.0,0.0,66,0.00,,---,0.00,VWS V14.01,2013-02-08 06:31:00,
2013-02-08 01:36:00,25.4,15.6,30.47,ENE,63,0.0,1.0,66,0.00,,---,0.00,VWS V14.01,2013-02-08 06:36:00,
2013-02-08 01:41:00,25.4,15.6,30.46,ENE,63,0.0,1.0,66,0.00,,---,0.00,VWS V14.01,2013-02-08 06:41:00,
2013-02-08 01:45:00,25.6,15.8,30.46,ENE,63,0.0,1.0,66,0.00,,---,0.00,VWS V14.01,2013-02-08 06:45:00,
2013-02-08 01:50:00,25.7,16.3,30.46,ENE,63,0.0,1.0,67,0.00,,---,0.00,VWS V14.01,2013-02-08 06:50:00,
2013-02-08 01:56:00,25.7,16.3,30.46,ENE,63,0.0,0.0,67,0.00,,---,0.00,VWS V14.01,2013-02-08 06:56:00,
2013-02-08 02:01:00,25.8,16.7,30.46,ENE,63,0.0,1.0,68,0.00,,---,0.00,VWS V14.01,2013-02-08 07:01:00,
2013-02-08 02:06:00,26.1,17.3,30.46,NNE,17,0.0,0.0,69,0.00,,---,0.00,VWS V14.01,2013-02-08 07:06:00,
2013-02-08 02:10:00,26.3,18.2,30.46,North,360,2.0,2.0,71,0.00,,---,0.00,VWS V14.01,2013-02-08 07:10:00,
2013-02-08 02:16:00,26.4,18.6,30.45,ENE,78,0.0,1.0,72,0.00,,---,0.00,VWS V14.01,2013-02-08 07:16:00,
2013-02-08 02:21:00,26.6,19.4,30.45,NNE,32,0.0,2.0,74,0.00,,---,0.00,VWS V14.01,2013-02-08 07:21:00,
2013-02-08 02:26:00,26.6,19.8,30.44,North,9,0.0,2.0,75,0.00,,---,0.00,VWS V14.01,2013-02-08 07:26:00,
2013-02-08 02:30:00,26.6,20.4,30.44,NNW,347,0.0,6.0,77,0.00,,---,0.00,VWS V14.01,2013-02-08 07:30:00,
2013-02-08 02:35:00,26.6,20.7,30.44,North,355,4.0,4.0,78,0.00,,---,0.00,VWS V14.01,2013-02-08 07:35:00,
2013-02-08 02:40:00,26.7,21.1,30.44,NE,44,1.0,4.0,79,0.00,,---,0.00,VWS V14.01,2013-02-08 07:40:00,
2013-02-08 02:45:00,26.7,21.4,30.43,NNE,15,7.0,7.0,80,0.00,,---,0.00,VWS V14.01,2013-02-08 07:45:00,
2013-02-08 02:50:00,26.7,21.7,30.43,NNE,29,0.0,7.0,81,0.00,,---,0.00,VWS V14.01,2013-02-08 07:50:00,
2013-02-08 02:55:00,26.7,21.7,30.43,NE,48,0.0,2.0,81,0.00,,---,0.00,VWS V14.01,2013-02-08 07:55:00,
2013-02-08 03:00:00,26.7,21.7,30.42,NE,36,7.0,9.0,81,0.00,,---,0.00,VWS V14.01,2013-02-08 08:00:00,
2013-02-08 03:05:00,26.9,22.1,30.42,NE,48,0.0,2.0,82,0.00,,---,0.00,VWS V14.01,2013-02-08 08:05:00,
2013-02-08 03:10:00,26.7,22.0,30.42,NE,43,0.0,2.0,82,0.00,,---,0.00,VWS V14.01,2013-02-08 08:10:00,
2013-02-08 03:15:00,26.9,22.1,30.41,ENE,65,0.0,3.0,82,0.00,,---,0.00,VWS V14.01,2013-02-08 08:15:00,
2013-02-08 03:20:00,26.9,22.1,30.41,NE,53,1.0,5.0,82,0.00,,---,0.00,VWS V14.01,2013-02-08 08:20:00,
2013-02-08 03:25:00,27.0,22.2,30.40,ESE,109,0.0,3.0,82,0.00,,---,0.00,VWS V14.01,2013-02-08 08:25:00,
2013-02-08 03:30:00,27.0,22.2,30.40,NNE,31,4.0,6.0,82,0.00,,---,0.00,VWS V14.01,2013-02-08 08:30:00,
2013-02-08 03:35:00,27.2,22.4,30.40,NNE,28,0.0,1.0,82,0.00,,---,0.00,VWS V14.01,2013-02-08 08:35:00,
2013-02-08 03:40:00,27.3,22.5,30.40,ENE,66,0.0,5.0,82,0.00,,---,0.00,VWS V14.01,2013-02-08 08:40:00,
2013-02-08 03:45:00,27.3,22.5,30.39,NE,34,0.0,2.0,82,0.00,,---,0.00,VWS V14.01,2013-02-08 08:45:00,
2013-02-08 03:50:00,27.5,22.7,30.40,NNE,21,0.0,4.0,82,0.00,,---,0.00,VWS V14.01,2013-02-08 08:50:00,
2013-02-08 03:55:00,27.6,22.8,30.39,NE,39,1.0,5.0,82,0.00,,---,0.00,VWS V14.01,2013-02-08 08:55:00,
2013-02-08 04:00:00,27.6,22.8,30.39,NE,49,4.0,10.0,82,0.00,,---,0.00,VWS V14.01,2013-02-08 09:00:00,
2013-02-08 04:05:00,27.8,23.0,30.39,North,360,2.0,7.0,82,0.00,,---,0.00,VWS V14.01,2013-02-08 09:05:00,
2013-02-08 04:10:00,27.8,23.0,30.39,NE,37,3.0,7.0,82,0.00,,---,0.00,VWS V14.01,2013-02-08 09:10:00,
2013-02-08 04:15:00,27.9,23.4,30.39,NNE,22,4.0,5.0,83,0.00,,---,0.00,VWS V14.01,2013-02-08 09:15:00,
2013-02-08 04:20:00,27.9,23.4,30.39,NE,55,0.0,9.0,83,0.00,,---,0.00,VWS V14.01,2013-02-08 09:20:00,
2013-02-08 04:25:00,27.9,23.4,30.39,NNE,33,5.0,8.0,83,0.00,,---,0.00,VWS V14.01,2013-02-08 09:25:00,
2013-02-08 04:30:00,27.9,23.1,30.39,NE,52,1.0,8.0,82,0.00,,---,0.00,VWS V14.01,2013-02-08 09:30:00,
2013-02-08 04:35:00,28.1,23.3,30.39,North,9,6.0,6.0,82,0.00,,---,0.00,VWS V14.01,2013-02-08 09:35:00,
2013-02-08 04:40:00,28.1,23.3,30.39,East,95,0.0,10.0,82,0.00,,---,0.00,VWS V14.01,2013-02-08 09:40:00,
2013-02-08 04:45:00,28.1,23.3,30.39,NE,53,1.0,4.0,82,0.00,,---,0.00,VWS V14.01,2013-02-08 09:45:00,
2013-02-08 04:50:00,27.9,23.1,30.39,NNW,340,3.0,4.0,82,0.00,,---,0.00,VWS V14.01,2013-02-08 09:50:00,
2013-02-08 04:55:00,28.1,23.3,30.39,NNE,17,1.0,6.0,82,0.00,,---,0.00,VWS V14.01,2013-02-08 09:55:00,
2013-02-08 05:00:00,28.1,23.3,30.39,ENE,65,1.0,9.0,82,0.00,,---,0.00,VWS V14.01,2013-02-08 10:00:00,
2013-02-08 05:05:00,28.1,23.0,30.39,ENE,73,1.0,4.0,81,0.00,,---,0.00,VWS V14.01,2013-02-08 10:05:00,
2013-02-08 05:10:00,28.1,23.0,30.38,East,81,0.0,8.0,81,0.00,,---,0.00,VWS V14.01,2013-02-08 10:10:00,
2013-02-08 05:15:00,28.2,22.8,30.38,NE,41,3.0,6.0,80,0.00,,---,0.00,VWS V14.01,2013-02-08 10:15:00,
2013-02-08 05:20:00,28.2,22.8,30.38,NE,38,0.0,8.0,80,0.00,,---,0.00,VWS V14.01,2013-02-08 10:20:00,
2013-02-08 05:25:00,28.4,23.0,30.38,NNE,28,5.0,9.0,80,0.00,,---,0.00,VWS V14.01,2013-02-08 10:25:00,
2013-02-08 05:30:00,28.4,22.7,30.38,East,82,1.0,9.0,79,0.00,,---,0.00,VWS V14.01,2013-02-08 10:30:00,
2013-02-08 05:35:00,28.5,22.8,30.37,ENE,75,0.0,5.0,79,0.00,,---,0.00,VWS V14.01,2013-02-08 10:35:00,
2013-02-08 05:40:00,28.7,23.0,30.37,NE,54,6.0,7.0,79,0.00,,---,0.00,VWS V14.01,2013-02-08 10:40:00,
2013-02-08 05:45:00,28.8,23.1,30.37,East,85,3.0,3.0,79,0.00,,---,0.00,VWS V14.01,2013-02-08 10:45:00,
2013-02-08 05:50:00,28.8,23.1,30.37,NNE,26,0.0,3.0,79,0.00,,---,0.00,VWS V14.01,2013-02-08 10:50:00,
2013-02-08 05:55:00,28.8,23.1,30.36,NE,44,3.0,7.0,79,0.00,,---,0.00,VWS V14.01,2013-02-08 10:55:00,
2013-02-08 06:00:00,29.0,23.3,30.36,NE,36,0.0,7.0,79,0.00,,---,0.00,VWS V14.01,2013-02-08 11:00:00,
2013-02-08 06:05:00,29.0,23.3,30.36,NNE,32,1.0,1.0,79,0.00,,---,0.00,VWS V14.01,2013-02-08 11:05:00,
2013-02-08 06:10:00,29.0,23.3,30.36,NE,40,0.0,6.0,79,0.00,,---,0.00,VWS V14.01,2013-02-08 11:10:00,
2013-02-08 06:15:00,29.1,23.4,30.37,NNE,12,8.0,8.0,79,0.00,,---,0.00,VWS V14.01,2013-02-08 11:15:00,
2013-02-08 06:20:00,29.3,23.3,30.37,NE,34,0.0,8.0,78,0.00,,---,0.00,VWS V14.01,2013-02-08 11:20:00,
2013-02-08 06:25:00,29.3,23.0,30.37,ENE,61,3.0,7.0,77,0.00,,---,0.00,VWS V14.01,2013-02-08 11:25:00,
2013-02-08 06:30:00,29.4,22.8,30.36,NE,55,2.0,7.0,76,0.00,,---,0.00,VWS V14.01,2013-02-08 11:30:00,
2013-02-08 06:35:00,29.4,22.5,30.36,NNE,12,3.0,5.0,75,0.00,,---,0.00,VWS V14.01,2013-02-08 11:35:00,
2013-02-08 06:40:00,29.5,22.6,30.36,NE,41,0.0,10.0,75,0.00,,---,0.00,VWS V14.01,2013-02-08 11:40:00,
2013-02-08 06:45:00,29.5,22.2,30.36,NNE,28,0.0,1.0,74,0.00,,---,0.00,VWS V14.01,2013-02-08 11:45:00,
2013-02-08 06:50:00,29.5,22.2,30.36,NNE,26,0.0,5.0,74,0.00,,---,0.00,VWS V14.01,2013-02-08 11:50:00,
2013-02-08 06:55:00,29.5,22.6,30.36,NE,55,0.0,1.0,75,0.00,,---,0.00,VWS V14.01,2013-02-08 11:55:00,
2013-02-08 07:00:00,29.5,22.6,30.36,NE,41,0.0,3.0,75,0.00,,---,0.00,VWS V14.01,2013-02-08 12:00:00,
2013-02-08 07:05:00,29.5,22.6,30.36,NE,42,1.0,3.0,75,0.00,,---,0.00,VWS V14.01,2013-02-08 12:05:00,
2013-02-08 07:10:00,29.5,22.6,30.36,NE,52,1.0,6.0,75,0.00,,---,0.00,VWS V14.01,2013-02-08 12:10:00,
2013-02-08 07:15:00,29.5,22.6,30.36,North,11,1.0,5.0,75,0.00,,---,0.00,VWS V14.01,2013-02-08 12:15:00,
2013-02-08 07:20:00,29.7,22.8,30.36,NE,45,2.0,11.0,75,0.00,,---,0.00,VWS V14.01,2013-02-08 12:20:00,
2013-02-08 07:25:00,29.7,22.8,30.36,North,5,6.0,6.0,75,0.00,,---,0.00,VWS V14.01,2013-02-08 12:25:00,
2013-02-08 07:30:00,29.8,22.9,30.36,East,86,0.0,7.0,75,0.00,,---,0.00,VWS V14.01,2013-02-08 12:30:00,
2013-02-08 07:35:00,29.7,22.8,30.36,NNE,15,1.0,4.0,75,0.00,,---,0.00,VWS V14.01,2013-02-08 12:35:00,
2013-02-08 07:40:00,29.8,22.9,30.36,NNE,21,4.0,6.0,75,0.00,,---,0.00,VWS V14.01,2013-02-08 12:40:00,
2013-02-08 07:45:00,30.0,23.0,30.36,North,350,0.0,7.0,75,0.00,,---,0.00,VWS V14.01,2013-02-08 12:45:00,
2013-02-08 07:50:00,30.0,23.0,30.36,NNE,22,3.0,11.0,75,0.00,,---,0.00,VWS V14.01,2013-02-08 12:50:00,
2013-02-08 07:55:00,30.1,23.1,30.36,ESE,116,1.0,7.0,75,0.00,,---,0.00,VWS V14.01,2013-02-08 12:55:00,
2013-02-08 08:00:00,30.1,23.1,30.35,NE,37,10.0,10.0,75,0.00,,---,0.00,VWS V14.01,2013-02-08 13:00:00,
2013-02-08 08:05:00,30.1,23.1,30.35,NNE,30,4.0,7.0,75,0.00,,---,0.00,VWS V14.01,2013-02-08 13:05:00,
2013-02-08 08:10:00,30.3,23.3,30.34,ENE,75,2.0,7.0,75,0.00,,---,0.00,VWS V14.01,2013-02-08 13:10:00,
2013-02-08 08:15:00,30.3,23.0,30.34,ENE,71,0.0,4.0,74,0.00,,---,0.00,VWS V14.01,2013-02-08 13:15:00,
2013-02-08 08:20:00,30.4,23.1,30.34,NE,44,3.0,12.0,74,0.00,,---,0.00,VWS V14.01,2013-02-08 13:20:00,
2013-02-08 08:25:00,30.6,23.3,30.34,NE,38,6.0,9.0,74,0.00,,---,0.00,VWS V14.01,2013-02-08 13:25:00,
2013-02-08 08:30:00,30.6,23.3,30.34,NNE,14,6.0,10.0,74,0.00,,---,0.00,VWS V14.01,2013-02-08 13:30:00,
2013-02-08 08:35:00,30.6,23.3,30.34,NE,40,2.0,5.0,74,0.00,,---,0.00,VWS V14.01,2013-02-08 13:35:00,
2013-02-08 08:40:00,30.7,23.4,30.34,ENE,69,3.0,10.0,74,0.00,,---,0.00,VWS V14.01,2013-02-08 13:40:00,
2013-02-08 08:45:00,30.7,23.4,30.33,NE,34,0.0,6.0,74,0.00,,---,0.00,VWS V14.01,2013-02-08 13:45:00,
2013-02-08 08:50:00,30.9,23.3,30.33,NE,53,0.0,14.0,73,0.00,,---,0.00,VWS V14.01,2013-02-08 13:50:00,
2013-02-08 08:55:00,30.9,23.3,30.33,ENE,78,2.0,5.0,73,0.00,,---,0.00,VWS V14.01,2013-02-08 13:55:00,
2013-02-08 09:00:00,30.9,23.3,30.33,East,92,2.0,9.0,73,0.00,,---,0.00,VWS V14.01,2013-02-08 14:00:00,
2013-02-08 09:05:00,31.0,23.0,30.32,NE,37,2.0,12.0,72,0.00,,---,0.00,VWS V14.01,2013-02-08 14:05:00,
2013-02-08 09:10:00,31.2,23.2,30.32,NNE,32,5.0,12.0,72,0.00,,---,0.00,VWS V14.01,2013-02-08 14:10:00,
2013-02-08 09:15:00,31.2,23.2,30.32,North,10,4.0,11.0,72,0.00,,---,0.00,VWS V14.01,2013-02-08 14:15:00,
2013-02-08 09:20:00,31.3,23.0,30.32,ENE,68,0.0,14.0,71,0.00,,---,0.00,VWS V14.01,2013-02-08 14:20:00,
2013-02-08 09:25:00,31.5,23.2,30.31,NNE,24,2.0,9.0,71,0.00,,---,0.00,VWS V14.01,2013-02-08 14:25:00,
2013-02-08 09:30:00,31.5,23.2,30.31,ENE,66,2.0,14.0,71,0.00,,---,0.00,VWS V14.01,2013-02-08 14:30:00,
2013-02-08 09:35:00,31.6,23.6,30.30,NE,46,5.0,13.0,72,0.00,,---,0.00,VWS V14.01,2013-02-08 14:35:00,
2013-02-08 09:40:00,31.6,23.6,30.30,NE,56,3.0,13.0,72,0.00,,---,0.00,VWS V14.01,2013-02-08 14:40:00,
2013-02-08 09:45:00,31.8,24.1,30.30,East,94,1.0,6.0,73,0.00,,---,0.00,VWS V14.01,2013-02-08 14:45:00,
2013-02-08 09:50:00,31.8,24.5,30.30,NE,55,6.0,9.0,74,0.00,,---,0.00,VWS V14.01,2013-02-08 14:50:00,
2013-02-08 09:55:00,31.8,24.5,30.30,NNE,32,4.0,6.0,74,0.00,,---,0.00,VWS V14.01,2013-02-08 14:55:00,
2013-02-08 10:00:00,31.8,24.8,30.30,ENE,67,1.0,11.0,75,0.00,,---,0.00,VWS V14.01,2013-02-08 15:00:00,
2013-02-08 10:05:00,31.8,24.8,30.30,North,350,4.0,8.0,75,0.00,,---,0.00,VWS V14.01,2013-02-08 15:05:00,
2013-02-08 10:10:00,31.9,24.9,30.30,ENE,71,1.0,12.0,75,0.00,,---,0.00,VWS V14.01,2013-02-08 15:10:00,
2013-02-08 10:15:00,31.9,24.9,30.29,NNE,28,3.0,7.0,75,0.00,,---,0.00,VWS V14.01,2013-02-08 15:15:00,
2013-02-08 10:20:00,31.9,25.2,30.30,NNW,345,3.0,14.0,76,0.00,,---,0.00,VWS V14.01,2013-02-08 15:20:00,
2013-02-08 10:25:00,31.9,25.5,30.29,NNE,29,4.0,11.0,77,0.00,,---,0.00,VWS V14.01,2013-02-08 15:25:00,
2013-02-08 10:30:00,31.8,25.7,30.29,NE,42,10.0,13.0,78,0.00,,---,0.00,VWS V14.01,2013-02-08 15:30:00,
2013-02-08 10:35:00,31.8,26.0,30.29,ENE,77,4.0,7.0,79,0.00,,---,0.00,VWS V14.01,2013-02-08 15:35:00,
2013-02-08 10:40:00,31.6,26.1,30.29,NE,49,1.0,10.0,80,0.00,,---,0.00,VWS V14.01,2013-02-08 15:40:00,
2013-02-08 10:45:00,31.6,26.5,30.29,NE,38,3.0,9.0,81,0.00,,---,0.00,VWS V14.01,2013-02-08 15:45:00,
2013-02-08 10:50:00,31.6,26.5,30.28,ENE,69,6.0,11.0,81,0.00,,---,0.00,VWS V14.01,2013-02-08 15:50:00,
2013-02-08 10:55:00,31.5,26.6,30.28,NE,53,0.0,13.0,82,0.00,,---,0.00,VWS V14.01,2013-02-08 15:55:00,
2013-02-08 11:00:00,31.5,26.9,30.27,NNE,23,5.0,15.0,83,0.00,,---,0.00,VWS V14.01,2013-02-08 16:00:00,
2013-02-08 11:05:00,31.6,27.3,30.27,ENE,59,4.0,7.0,84,0.00,,---,0.00,VWS V14.01,2013-02-08 16:05:00,
2013-02-08 11:10:00,31.8,27.5,30.26,North,11,2.0,11.0,84,0.00,,---,0.00,VWS V14.01,2013-02-08 16:10:00,
2013-02-08 11:15:00,31.8,27.8,30.25,NE,46,0.0,11.0,85,0.00,,---,0.00,VWS V14.01,2013-02-08 16:15:00,
2013-02-08 11:20:00,31.8,28.1,30.25,NNE,24,5.0,12.0,86,0.00,,---,0.00,VWS V14.01,2013-02-08 16:20:00,
2013-02-08 11:25:00,31.9,28.2,30.25,NE,44,0.0,11.0,86,0.00,,---,0.00,VWS V14.01,2013-02-08 16:25:00,
2013-02-08 11:30:00,32.1,28.7,30.24,North,11,4.0,12.0,87,0.00,,---,0.00,VWS V14.01,2013-02-08 16:30:00,
2013-02-08 11:35:00,32.2,28.8,30.24,NE,42,1.0,11.0,87,0.00,,---,0.00,VWS V14.01,2013-02-08 16:35:00,
2013-02-08 11:40:00,32.2,28.5,30.23,NE,41,9.0,11.0,86,0.00,,---,0.00,VWS V14.01,2013-02-08 16:40:00,
2013-02-08 11:45:00,32.2,28.8,30.23,ENE,76,4.0,6.0,87,0.00,,---,0.00,VWS V14.01,2013-02-08 16:45:00,
2013-02-08 11:50:00,32.2,29.0,30.22,North,11,5.0,11.0,88,0.00,,---,0.00,VWS V14.01,2013-02-08 16:50:00,
2013-02-08 11:55:00,32.4,29.2,30.21,ENE,74,0.0,10.0,88,0.00,,---,0.00,VWS V14.01,2013-02-08 16:55:00,
2013-02-08 12:00:00,32.2,29.3,30.21,ENE,57,5.0,14.0,89,0.00,,---,0.00,VWS V14.01,2013-02-08 17:00:00,
2013-02-08 12:05:00,32.2,29.6,30.21,NNE,24,7.0,10.0,90,0.00,,---,0.00,VWS V14.01,2013-02-08 17:05:00,
2013-02-08 12:10:00,32.2,29.6,30.21,NNE,29,3.0,16.0,90,0.00,,---,0.00,VWS V14.01,2013-02-08 17:10:00,
2013-02-08 12:15:00,32.1,29.5,30.20,NE,42,3.0,9.0,90,0.00,,---,0.00,VWS V14.01,2013-02-08 17:15:00,
2013-02-08 12:20:00,32.1,29.5,30.20,NNE,26,5.0,14.0,90,0.00,,---,0.00,VWS V14.01,2013-02-08 17:20:00,
2013-02-08 12:25:00,31.9,29.3,30.19,NE,40,5.0,16.0,90,0.00,,---,0.00,VWS V14.01,2013-02-08 17:25:00,
2013-02-08 12:30:00,31.8,29.2,30.18,NE,45,1.0,16.0,90,0.00,,---,0.00,VWS V14.01,2013-02-08 17:30:00,
2013-02-08 12:35:00,31.8,29.5,30.18,ENE,57,15.0,15.0,91,0.00,,---,0.00,VWS V14.01,2013-02-08 17:35:00,
2013-02-08 12:40:00,31.5,29.2,30.18,NE,52,2.0,17.0,91,0.00,,---,0.00,VWS V14.01,2013-02-08 17:40:00,
2013-02-08 12:45:00,31.5,29.2,30.18,NNE,26,5.0,17.0,91,0.00,,---,0.00,VWS V14.01,2013-02-08 17:45:00,
2013-02-08 12:50:00,31.5,29.5,30.18,ENE,76,2.0,17.0,92,0.00,,---,0.00,VWS V14.01,2013-02-08 17:50:00,
2013-02-08 12:55:00,31.2,29.1,30.18,NE,56,0.0,15.0,92,0.00,,---,0.00,VWS V14.01,2013-02-08 17:55:00,
2013-02-08 13:00:00,31.0,29.0,30.17,East,101,6.0,15.0,92,0.00,,---,0.00,VWS V14.01,2013-02-08 18:00:00,
2013-02-08 13:05:00,30.9,28.9,30.17,NE,35,11.0,14.0,92,0.00,,---,0.00,VWS V14.01,2013-02-08 18:05:00,
2013-02-08 13:10:00,30.9,28.9,30.16,NNE,17,9.0,17.0,92,0.00,,---,0.00,VWS V14.01,2013-02-08 18:10:00,
2013-02-08 13:15:00,30.9,29.1,30.16,ENE,76,4.0,11.0,93,0.00,,---,0.00,VWS V14.01,2013-02-08 18:15:00,
2013-02-08 13:20:00,30.6,28.8,30.16,NE,37,3.0,20.0,93,0.00,,---,0.00,VWS V14.01,2013-02-08 18:20:00,
2013-02-08 13:25:00,30.4,28.9,30.16,NNE,19,6.0,15.0,94,0.00,,---,0.00,VWS V14.01,2013-02-08 18:25:00,
2013-02-08 13:30:00,30.4,28.9,30.15,NNE,15,10.0,16.0,94,0.00,,---,0.00,VWS V14.01,2013-02-08 18:30:00,
2013-02-08 13:35:00,30.6,29.1,30.15,NE,53,10.0,13.0,94,0.00,,---,0.00,VWS V14.01,2013-02-08 18:35:00,
2013-02-08 13:41:00,30.6,29.1,30.14,NE,55,5.0,14.0,94,0.00,,---,0.00,VWS V14.01,2013-02-08 18:41:00,
2013-02-08 13:46:00,30.4,29.1,30.14,NE,42,6.0,19.0,95,0.00,,---,0.00,VWS V14.01,2013-02-08 18:46:00,
2013-02-08 13:51:00,30.4,29.1,30.14,NNE,28,5.0,19.0,95,0.00,,---,0.00,VWS V14.01,2013-02-08 18:51:00,
2013-02-08 13:56:00,30.1,28.8,30.14,NE,46,7.0,17.0,95,0.00,,---,0.00,VWS V14.01,2013-02-08 18:56:00,
2013-02-08 14:01:00,30.3,29.0,30.13,NNE,16,3.0,17.0,95,0.00,,---,0.00,VWS V14.01,2013-02-08 19:01:00,
2013-02-08 14:06:00,30.3,29.0,30.12,East,84,10.0,14.0,95,0.00,,---,0.00,VWS V14.01,2013-02-08 19:06:00,
2013-02-08 14:11:00,30.1,28.8,30.12,NNE,15,2.0,23.0,95,0.00,,---,0.00,VWS V14.01,2013-02-08 19:11:00,
2013-02-08 14:16:00,30.0,28.7,30.12,NNW,348,7.0,15.0,95,0.00,,---,0.00,VWS V14.01,2013-02-08 19:16:00,
2013-02-08 14:21:00,30.0,28.7,30.11,NNE,15,14.0,16.0,95,0.00,,---,0.00,VWS V14.01,2013-02-08 19:21:00,
2013-02-08 14:26:00,29.8,28.5,30.11,North,355,0.0,12.0,95,0.00,,---,0.00,VWS V14.01,2013-02-08 19:26:00,
2013-02-08 14:31:00,29.8,28.5,30.11,North,360,5.0,18.0,95,0.00,,---,0.00,VWS V14.01,2013-02-08 19:31:00,
2013-02-08 14:36:00,29.8,28.5,30.10,NNE,25,1.0,13.0,95,0.00,,---,0.00,VWS V14.01,2013-02-08 19:36:00,
2013-02-08 14:41:00,29.5,28.2,30.10,North,10,9.0,20.0,95,0.00,,---,0.00,VWS V14.01,2013-02-08 19:41:00,
2013-02-08 14:46:00,29.5,28.2,30.10,East,89,11.0,15.0,95,0.00,,---,0.00,VWS V14.01,2013-02-08 19:46:00,
2013-02-08 14:51:00,29.5,28.2,30.09,North,5,7.0,17.0,95,0.00,,---,0.00,VWS V14.01,2013-02-08 19:51:00,
2013-02-08 14:56:00,29.5,28.2,30.09,North,355,4.0,16.0,95,0.00,,---,0.00,VWS V14.01,2013-02-08 19:56:00,
2013-02-08 15:01:00,29.5,28.2,30.09,NE,42,4.0,22.0,95,0.00,,---,0.00,VWS V14.01,2013-02-08 20:01:00,
2013-02-08 15:06:00,29.7,28.5,30.09,ENE,67,5.0,16.0,95,0.00,,---,0.00,VWS V14.01,2013-02-08 20:06:00,
2013-02-08 15:11:00,29.7,28.5,30.09,NE,56,2.0,21.0,95,0.00,,---,0.00,VWS V14.01,2013-02-08 20:11:00,
2013-02-08 15:16:00,29.7,28.5,30.08,North,355,6.0,17.0,95,0.00,,---,0.00,VWS V14.01,2013-02-08 20:16:00,
2013-02-08 15:21:00,29.7,28.5,30.08,NNE,31,23.0,23.0,95,0.00,,---,0.00,VWS V14.01,2013-02-08 20:21:00,
2013-02-08 15:26:00,29.5,28.2,30.08,North,350,12.0,21.0,95,0.00,,---,0.00,VWS V14.01,2013-02-08 20:26:00,
2013-02-08 15:31:00,29.5,28.5,30.07,NNE,33,9.0,21.0,96,0.00,,---,0.00,VWS V14.01,2013-02-08 20:31:00,
2013-02-08 15:36:00,29.5,28.5,30.06,NE,44,4.0,20.0,96,0.00,,---,0.00,VWS V14.01,2013-02-08 20:36:00,
2013-02-08 15:41:00,29.5,28.5,30.06,NNE,28,12.0,23.0,96,0.00,,---,0.00,VWS V14.01,2013-02-08 20:41:00,
2013-02-08 15:46:00,29.4,28.4,30.06,NE,51,5.0,19.0,96,0.00,,---,0.00,VWS V14.01,2013-02-08 20:46:00,
2013-02-08 15:50:00,29.4,28.4,30.05,ENE,70,7.0,19.0,96,0.00,,---,0.00,VWS V14.01,2013-02-08 20:50:00,
2013-02-08 15:56:00,29.5,28.5,30.04,NE,45,10.0,24.0,96,0.00,,---,0.00,VWS V14.01,2013-02-08 20:56:00,
2013-02-08 16:01:00,29.4,28.4,30.03,ENE,60,9.0,24.0,96,0.00,,---,0.00,VWS V14.01,2013-02-08 21:01:00,
2013-02-08 16:06:00,29.4,28.4,30.02,NE,43,3.0,18.0,96,0.00,,---,0.00,VWS V14.01,2013-02-08 21:06:00,
2013-02-08 16:11:00,29.5,28.5,30.02,East,98,9.0,22.0,96,0.00,,---,0.00,VWS V14.01,2013-02-08 21:11:00,
2013-02-08 16:16:00,29.7,28.7,30.02,NNW,342,11.0,20.0,96,0.00,,---,0.00,VWS V14.01,2013-02-08 21:16:00,
2013-02-08 16:21:00,29.5,28.5,30.01,NE,56,4.0,22.0,96,0.00,,---,0.00,VWS V14.01,2013-02-08 21:21:00,
2013-02-08 16:26:00,29.5,28.8,30.01,North,5,18.0,23.0,97,0.00,,---,0.00,VWS V14.01,2013-02-08 21:26:00,
2013-02-08 16:31:00,29.7,29.0,30.00,NE,35,5.0,23.0,97,0.00,,---,0.00,VWS V14.01,2013-02-08 21:31:00,
2013-02-08 16:36:00,29.7,29.0,29.99,SE,126,5.0,16.0,97,0.00,,---,0.00,VWS V14.01,2013-02-08 21:36:00,
2013-02-08 16:40:00,29.7,29.0,29.99,ENE,65,5.0,21.0,97,0.00,,---,0.00,VWS V14.01,2013-02-08 21:40:00,
2013-02-08 16:45:00,29.8,29.3,29.99,NNE,32,5.0,19.0,98,0.00,,---,0.00,VWS V14.01,2013-02-08 21:45:00,
2013-02-08 16:50:00,30.0,29.5,29.98,North,5,8.0,19.0,98,0.00,,---,0.00,VWS V14.01,2013-02-08 21:50:00,
2013-02-08 16:55:00,29.8,29.3,29.98,NW,315,4.0,14.0,98,0.00,,---,0.00,VWS V14.01,2013-02-08 21:55:00,
2013-02-08 17:00:00,29.8,29.3,29.98,NE,49,13.0,22.0,98,0.00,,---,0.00,VWS V14.01,2013-02-08 22:00:00,
2013-02-08 17:05:00,29.8,29.3,29.97,NE,44,8.0,15.0,98,0.00,,---,0.00,VWS V14.01,2013-02-08 22:05:00,
2013-02-08 17:10:00,30.0,29.5,29.97,North,355,14.0,19.0,98,0.00,,---,0.00,VWS V14.01,2013-02-08 22:10:00,
2013-02-08 17:15:00,30.0,29.5,29.96,North,349,6.0,16.0,98,0.00,,---,0.00,VWS V14.01,2013-02-08 22:15:00,
2013-02-08 17:20:00,29.8,29.3,29.96,NE,47,11.0,19.0,98,0.00,,---,0.00,VWS V14.01,2013-02-08 22:20:00,
2013-02-08 17:25:00,29.8,29.3,29.95,NE,44,4.0,19.0,98,0.00,,---,0.00,VWS V14.01,2013-02-08 22:25:00,
2013-02-08 17:30:00,30.0,29.8,29.95,NE,46,11.0,19.0,99,0.00,,---,0.00,VWS V14.01,2013-02-08 22:30:00,
2013-02-08 17:35:00,30.1,29.9,29.95,NE,44,14.0,24.0,99,0.00,,---,0.00,VWS V14.01,2013-02-08 22:35:00,
2013-02-08 17:40:00,30.3,30.0,29.94,NNE,22,16.0,24.0,99,0.00,,---,0.00,VWS V14.01,2013-02-08 22:40:00,
2013-02-08 17:45:00,30.3,30.0,29.94,NE,39,9.0,17.0,99,0.00,,---,0.00,VWS V14.01,2013-02-08 22:45:00,
2013-02-08 17:50:00,30.3,30.0,29.94,NNE,28,10.0,21.0,99,0.00,,---,0.00,VWS V14.01,2013-02-08 22:50:00,
2013-02-08 17:55:00,30.3,30.0,29.94,North,360,5.0,19.0,99,0.00,,---,0.00,VWS V14.01,2013-02-08 22:55:00,
2013-02-08 18:00:00,30.1,29.9,29.94,NE,36,6.0,23.0,99,0.00,,---,0.00,VWS V14.01,2013-02-08 23:00:00,
2013-02-08 18:05:00,30.3,30.0,29.94,NNE,33,14.0,18.0,99,0.00,,---,0.00,VWS V14.01,2013-02-08 23:05:00,
2013-02-08 18:10:00,30.3,30.0,29.94,NE,38,20.0,27.0,99,0.00,,---,0.00,VWS V14.01,2013-02-08 23:10:00,
2013-02-08 18:15:00,30.3,30.0,29.94,NNE,17,16.0,23.0,99,0.00,,---,0.00,VWS V14.01,2013-02-08 23:15:00,
2013-02-08 18:20:00,30.1,29.9,29.93,NNW,347,17.0,32.0,99,0.00,,---,0.00,VWS V14.01,2013-02-08 23:20:00,
2013-02-08 18:25:00,30.1,29.9,29.93,North,5,21.0,21.0,99,0.00,,---,0.00,VWS V14.01,2013-02-08 23:25:00,
2013-02-08 18:30:00,30.3,30.0,29.92,NE,46,11.0,28.0,99,0.00,,---,0.00,VWS V14.01,2013-02-08 23:30:00,
2013-02-08 18:35:00,30.3,30.0,29.92,NNE,26,11.0,11.0,99,0.00,,---,0.00,VWS V14.01,2013-02-08 23:35:00,
2013-02-08 18:40:00,30.4,30.1,29.92,NNE,16,5.0,20.0,99,0.00,,---,0.00,VWS V14.01,2013-02-08 23:40:00,
2013-02-08 18:45:00,30.4,30.1,29.91,ENE,60,12.0,19.0,99,0.00,,---,0.00,VWS V14.01,2013-02-08 23:45:00,
2013-02-08 18:50:00,30.4,30.1,29.92,ENE,71,12.0,26.0,99,0.00,,---,0.00,VWS V14.01,2013-02-08 23:50:00,
2013-02-08 18:55:00,30.4,30.1,29.91,North,5,11.0,30.0,99,0.00,,---,0.00,VWS V14.01,2013-02-08 23:55:00,
2013-02-08 19:00:00,30.4,30.1,29.90,North,5,13.0,30.0,99,0.00,,---,0.00,VWS V14.01,2013-02-09 00:00:00,
2013-02-08 19:05:00,30.3,30.0,29.89,North,350,3.0,22.0,99,0.00,,---,0.00,VWS V14.01,2013-02-09 00:05:00,
2013-02-08 19:10:00,30.1,29.9,29.89,ENE,63,5.0,22.0,99,0.00,,---,0.00,VWS V14.01,2013-02-09 00:10:00,
2013-02-08 19:15:00,30.1,29.9,29.88,NNE,32,8.0,30.0,99,0.00,,---,0.00,VWS V14.01,2013-02-09 00:15:00,
2013-02-08 19:20:00,30.0,29.8,29.86,North,360,11.0,30.0,99,0.00,,---,0.00,VWS V14.01,2013-02-09 00:20:00,
2013-02-08 19:25:00,30.1,30.1,29.87,NE,44,2.0,31.0,100,0.00,,---,0.00,VWS V14.01,2013-02-09 00:25:00,
2013-02-08 19:30:00,30.0,30.0,29.86,North,360,6.0,31.0,100,0.00,,---,0.00,VWS V14.01,2013-02-09 00:30:00,
2013-02-08 19:35:00,30.0,30.0,29.85,North,350,7.0,29.0,100,0.00,,---,0.00,VWS V14.01,2013-02-09 00:35:00,
2013-02-08 19:40:00,29.8,29.8,29.86,North,5,14.0,29.0,100,0.00,,---,0.00,VWS V14.01,2013-02-09 00:40:00,
2013-02-08 19:45:00,29.7,29.7,29.85,NE,36,3.0,24.0,100,0.00,,---,0.00,VWS V14.01,2013-02-09 00:45:00,
2013-02-08 19:50:00,29.7,29.7,29.83,East,85,5.0,32.0,100,0.00,,---,0.00,VWS V14.01,2013-02-09 00:50:00,
2013-02-08 19:55:00,29.7,29.7,29.84,ENE,78,6.0,19.0,100,0.00,,---,0.00,VWS V14.01,2013-02-09 00:55:00,
2013-02-08 20:00:00,29.5,29.5,29.84,NE,36,7.0,26.0,100,0.00,,---,0.00,VWS V14.01,2013-02-09 01:00:00,
2013-02-08 20:05:00,29.4,29.4,29.84,ENE,63,12.0,20.0,100,0.00,,---,0.00,VWS V14.01,2013-02-09 01:05:00,
2013-02-08 20:10:00,29.4,29.4,29.83,NNE,15,12.0,24.0,100,0.00,,---,0.00,VWS V14.01,2013-02-09 01:10:00,
2013-02-08 20:15:00,29.3,29.3,29.83,NW,308,11.0,26.0,100,0.00,,---,0.00,VWS V14.01,2013-02-09 01:15:00,
2013-02-08 20:20:00,29.3,29.3,29.82,ENE,65,13.0,34.0,100,0.00,,---,0.00,VWS V14.01,2013-02-09 01:20:00,
2013-02-08 20:25:00,29.1,29.1,29.82,NNW,334,16.0,27.0,100,0.00,,---,0.00,VWS V14.01,2013-02-09 01:25:00,
2013-02-08 20:30:00,29.1,29.1,29.82,NW,311,12.0,35.0,100,0.00,,---,0.00,VWS V14.01,2013-02-09 01:30:00,
2013-02-08 20:35:00,29.1,29.1,29.81,North,11,21.0,21.0,100,0.00,,---,0.00,VWS V14.01,2013-02-09 01:35:00,
2013-02-08 20:40:00,28.5,28.2,29.81,NNE,18,7.0,21.0,99,0.00,,---,0.00,VWS V14.01,2013-02-09 01:40:00,
2013-02-08 20:45:00,26.0,25.8,29.79,WNW,284,1.0,15.0,99,0.00,,---,0.00,VWS V14.01,2013-02-09 01:45:00,
2013-02-08 20:50:00,24.2,23.5,29.79,NNW,330,4.0,22.0,97,0.00,,---,0.00,VWS V14.01,2013-02-09 01:50:00,
2013-02-08 20:56:00,23.3,22.6,29.78,NNW,341,6.0,12.0,97,0.00,,---,0.00,VWS V14.01,2013-02-09 01:56:00,
2013-02-08 21:00:00,22.5,21.5,29.77,NNW,348,10.0,19.0,96,0.00,,---,0.00,VWS V14.01,2013-02-09 02:00:00,
2013-02-08 21:05:00,22.1,20.9,29.77,NNE,27,4.0,14.0,95,0.00,,---,0.00,VWS V14.01,2013-02-09 02:05:00,
2013-02-08 21:10:00,21.9,20.7,29.77,NNE,18,9.0,16.0,95,0.00,,---,0.00,VWS V14.01,2013-02-09 02:10:00,
2013-02-08 21:15:00,21.6,20.1,29.76,NW,321,9.0,16.0,94,0.00,,---,0.00,VWS V14.01,2013-02-09 02:15:00,
2013-02-08 21:20:00,21.4,19.9,29.75,NW,318,4.0,16.0,94,0.00,,---,0.00,VWS V14.01,2013-02-09 02:20:00,
2013-02-08 21:25:00,21.1,19.4,29.75,WNW,300,2.0,9.0,93,0.00,,---,0.00,VWS V14.01,2013-02-09 02:25:00,
2013-02-08 21:30:00,21.0,19.3,29.75,WNW,294,5.0,12.0,93,0.00,,---,0.00,VWS V14.01,2013-02-09 02:30:00,
2013-02-08 21:35:00,20.6,18.9,29.74,NE,40,15.0,15.0,93,0.00,,---,0.00,VWS V14.01,2013-02-09 02:35:00,
2013-02-08 21:40:00,20.3,18.4,29.73,NE,55,4.0,18.0,92,0.00,,---,0.00,VWS V14.01,2013-02-09 02:40:00,
2013-02-08 21:45:00,20.0,18.0,29.74,NW,306,1.0,8.0,92,0.00,,---,0.00,VWS V14.01,2013-02-09 02:45:00,
2013-02-08 21:50:00,19.9,18.0,29.74,NW,312,1.0,8.0,92,0.00,,---,0.00,VWS V14.01,2013-02-09 02:50:00,
2013-02-08 21:55:00,19.5,17.6,29.75,NW,312,4.0,13.0,92,0.00,,---,0.00,VWS V14.01,2013-02-09 02:55:00,
2013-02-08 22:00:00,19.2,17.0,29.75,NNE,32,2.0,13.0,91,0.00,,---,0.00,VWS V14.01,2013-02-09 03:00:00,
2013-02-08 22:05:00,18.9,16.7,29.74,North,355,4.0,6.0,91,0.00,,---,0.00,VWS V14.01,2013-02-09 03:05:00,
2013-02-08 22:10:00,18.8,16.6,29.74,WNW,294,3.0,6.0,91,0.00,,---,0.00,VWS V14.01,2013-02-09 03:10:00,
2013-02-08 22:15:00,18.6,16.4,29.75,WNW,294,9.0,9.0,91,0.00,,---,0.00,VWS V14.01,2013-02-09 03:15:00,
2013-02-08 22:20:00,18.4,16.2,29.74,NE,35,21.0,21.0,91,0.00,,---,0.00,VWS V14.01,2013-02-09 03:20:00,
2013-02-08 22:25:00,18.4,16.2,29.74,NE,42,6.0,6.0,91,0.00,,---,0.00,VWS V14.01,2013-02-09 03:25:00,
2013-02-08 22:30:00,18.4,16.2,29.74,NW,315,2.0,9.0,91,0.00,,---,0.00,VWS V14.01,2013-02-09 03:30:00,
2013-02-08 22:35:00,18.4,16.2,29.73,NW,310,11.0,12.0,91,0.00,,---,0.00,VWS V14.01,2013-02-09 03:35:00,
2013-02-08 22:41:00,18.6,16.7,29.71,NW,311,5.0,14.0,92,0.00,,---,0.00,VWS V14.01,2013-02-09 03:41:00,
2013-02-08 22:46:00,18.8,16.9,29.70,NW,314,5.0,9.0,92,0.00,,---,0.00,VWS V14.01,2013-02-09 03:46:00,
2013-02-08 22:51:00,18.9,17.0,29.69,NW,304,1.0,19.0,92,0.00,,---,0.00,VWS V14.01,2013-02-09 03:51:00,
2013-02-08 22:56:00,19.1,17.2,29.70,SE,125,2.0,17.0,92,0.00,,---,0.00,VWS V14.01,2013-02-09 03:56:00,
2013-02-08 23:01:00,19.1,17.2,29.68,West,278,4.0,25.0,92,0.00,,---,0.00,VWS V14.01,2013-02-09 04:01:00,
2013-02-08 23:06:00,19.1,17.2,29.67,NNW,345,4.0,16.0,92,0.00,,---,0.00,VWS V14.01,2013-02-09 04:06:00,
2013-02-08 23:11:00,19.1,17.2,29.67,North,360,6.0,25.0,92,0.00,,---,0.00,VWS V14.01,2013-02-09 04:11:00,
2013-02-08 23:16:00,19.2,17.3,29.66,North,355,9.0,17.0,92,0.00,,---,0.00,VWS V14.01,2013-02-09 04:16:00,
2013-02-08 23:21:00,19.2,17.3,29.65,NE,48,4.0,24.0,92,0.00,,---,0.00,VWS V14.01,2013-02-09 04:21:00,
2013-02-08 23:26:00,19.2,17.3,29.66,NW,307,8.0,19.0,92,0.00,,---,0.00,VWS V14.01,2013-02-09 04:26:00,
2013-02-08 23:31:00,19.2,17.3,29.64,NNW,346,3.0,20.0,92,0.00,,---,0.00,VWS V14.01,2013-02-09 04:31:00,
2013-02-08 23:36:00,19.1,17.2,29.64,NE,43,11.0,16.0,92,0.00,,---,0.00,VWS V14.01,2013-02-09 04:36:00,
2013-02-08 23:41:00,19.1,17.2,29.64,North,360,7.0,22.0,92,0.00,,---,0.00,VWS V14.01,2013-02-09 04:41:00,
2013-02-08 23:46:00,19.1,17.2,29.64,NW,320,6.0,11.0,92,0.00,,---,0.00,VWS V14.01,2013-02-09 04:46:00,
2013-02-08 23:51:00,18.9,16.7,29.64,NNW,346,11.0,20.0,91,0.00,,---,0.00,VWS V14.01,2013-02-09 04:51:00,
2013-02-08 23:56:00,18.8,16.6,29.64,WSW,252,2.0,17.0,91,0.00,,---,0.00,VWS V14.01,2013-02-09 04:56:00,